BCS3317 ESSA-EDDP
Flight info
| Callsign | BCS3317 |
|---|---|
| Flight time | 1h 30m |
| Altitude | 32000 |
| Route | NOSLI N850 ABAMA DCT SALLO DCT SUVAL/N0483F330 M736 MAG/N0488F300 Z20 KENIG/N0445F230 T959 KOJEC KOJEC1R |
| Aircraft | B77L/H-SDE1E2E3FGHIJ2J3J4J5M1RWXY/LB1D1 |
Departure
| Time | 2026-05-06 17:13 |
|---|---|
| Airport | Stockholm-Arlanda Airport (ESSA) |
Arrival
| Time | 2026-05-06 18:43 |
|---|---|
| Airport | Leipzig/Halle Airport (EDDP) |
| Time | Latitude | Longitude | Altitude | Speed | Heading |
|---|---|---|---|---|---|
| 2026-05-06 16:40 | 59.63948 | 17.92814 | 116 ft | 0 kts | 209° |
| 2026-05-06 17:02 | 59.63960 | 17.92827 | 116 ft | 4 kts | 205° |
| 2026-05-06 17:02 | 59.63979 | 17.92845 | 115 ft | 4 kts | 210° |
| 2026-05-06 17:02 | 59.63996 | 17.92873 | 111 ft | 4 kts | 248° |
| 2026-05-06 17:02 | 59.63998 | 17.92911 | 111 ft | 4 kts | 292° |
| 2026-05-06 17:03 | 59.63987 | 17.92955 | 111 ft | 4 kts | 297° |
| 2026-05-06 17:03 | 59.63977 | 17.92994 | 111 ft | 0 kts | 297° |
| 2026-05-06 17:06 | 59.63991 | 17.92943 | 114 ft | 4 kts | 297° |
| 2026-05-06 17:06 | 59.64031 | 17.92819 | 111 ft | 14 kts | 317° |
| 2026-05-06 17:06 | 59.64124 | 17.92765 | 112 ft | 14 kts | 319° |
| 2026-05-06 17:07 | 59.64173 | 17.92592 | 115 ft | 14 kts | 298° |
| 2026-05-06 17:07 | 59.64220 | 17.92416 | 117 ft | 14 kts | 297° |
| 2026-05-06 17:07 | 59.64268 | 17.92233 | 117 ft | 17 kts | 297° |
| 2026-05-06 17:07 | 59.64334 | 17.91981 | 115 ft | 23 kts | 298° |
| 2026-05-06 17:08 | 59.64423 | 17.91935 | 114 ft | 17 kts | 12° |
| 2026-05-06 17:08 | 59.64541 | 17.91977 | 112 ft | 17 kts | 9° |
| 2026-05-06 17:08 | 59.64660 | 17.92018 | 110 ft | 17 kts | 10° |
| 2026-05-06 17:08 | 59.64778 | 17.92063 | 108 ft | 17 kts | 11° |
| 2026-05-06 17:09 | 59.64896 | 17.92106 | 111 ft | 17 kts | 10° |
| 2026-05-06 17:09 | 59.65014 | 17.92149 | 111 ft | 17 kts | 10° |
| 2026-05-06 17:09 | 59.65132 | 17.92192 | 108 ft | 17 kts | 10° |
| 2026-05-06 17:09 | 59.65251 | 17.92236 | 110 ft | 17 kts | 10° |
| 2026-05-06 17:10 | 59.65372 | 17.92281 | 109 ft | 18 kts | 10° |
| 2026-05-06 17:10 | 59.65495 | 17.92324 | 109 ft | 18 kts | 10° |
| 2026-05-06 17:10 | 59.65577 | 17.92354 | 109 ft | 19 kts | 10° |
| 2026-05-06 17:10 | 59.65718 | 17.92405 | 109 ft | 22 kts | 11° |
| 2026-05-06 17:11 | 59.65882 | 17.92463 | 110 ft | 25 kts | 9° |
| 2026-05-06 17:11 | 59.66063 | 17.92525 | 113 ft | 28 kts | 10° |
| 2026-05-06 17:11 | 59.66231 | 17.92591 | 117 ft | 25 kts | 11° |
| 2026-05-06 17:11 | 59.66401 | 17.92651 | 123 ft | 25 kts | 8° |
| 2026-05-06 17:12 | 59.66571 | 17.92580 | 124 ft | 26 kts | 339° |
| 2026-05-06 17:12 | 59.66591 | 17.92376 | 124 ft | 17 kts | 217° |
| 2026-05-06 17:12 | 59.66498 | 17.92328 | 124 ft | 20 kts | 191° |
| 2026-05-06 17:12 | 59.66094 | 17.92181 | 121 ft | 108 kts | 190° |
| 2026-05-06 17:13 | 59.65046 | 17.91798 | 358 ft | 179 kts | 187° |
| 2026-05-06 17:13 | 59.63832 | 17.91367 | 1892 ft | 177 kts | 192° |
| 2026-05-06 17:13 | 59.62556 | 17.90985 | 3001 ft | 200 kts | 193° |
| 2026-05-06 17:13 | 59.61184 | 17.90075 | 3789 ft | 219 kts | 223° |
| 2026-05-06 17:14 | 59.60328 | 17.87613 | 4723 ft | 222 kts | 246° |
| 2026-05-06 17:14 | 59.59636 | 17.84775 | 4987 ft | 233 kts | 245° |
| 2026-05-06 17:14 | 59.58828 | 17.81977 | 5006 ft | 236 kts | 241° |
| 2026-05-06 17:14 | 59.58043 | 17.79173 | 5156 ft | 230 kts | 245° |
| 2026-05-06 17:15 | 59.57317 | 17.76371 | 5481 ft | 232 kts | 245° |
| 2026-05-06 17:15 | 59.56411 | 17.73773 | 5760 ft | 236 kts | 220° |
| 2026-05-06 17:15 | 59.54972 | 17.72152 | 6252 ft | 243 kts | 209° |
| 2026-05-06 17:15 | 59.53437 | 17.70653 | 6646 ft | 247 kts | 209° |
| 2026-05-06 17:16 | 59.51873 | 17.69115 | 7059 ft | 255 kts | 210° |
| 2026-05-06 17:16 | 59.50269 | 17.67539 | 7462 ft | 259 kts | 209° |
| 2026-05-06 17:16 | 59.48653 | 17.65956 | 7857 ft | 259 kts | 209° |
| 2026-05-06 17:16 | 59.47037 | 17.64375 | 8245 ft | 260 kts | 210° |
| 2026-05-06 17:17 | 59.45418 | 17.62789 | 8656 ft | 260 kts | 210° |
| 2026-05-06 17:17 | 59.43800 | 17.61205 | 9060 ft | 260 kts | 210° |
| 2026-05-06 17:17 | 59.42181 | 17.59620 | 9473 ft | 261 kts | 210° |
| 2026-05-06 17:17 | 59.40553 | 17.58026 | 9894 ft | 265 kts | 210° |
| 2026-05-06 17:18 | 59.38826 | 17.56327 | 10382 ft | 288 kts | 210° |
| 2026-05-06 17:18 | 59.37014 | 17.54551 | 10865 ft | 294 kts | 210° |
| 2026-05-06 17:18 | 59.35178 | 17.52761 | 11331 ft | 295 kts | 211° |
| 2026-05-06 17:18 | 59.33339 | 17.50972 | 11797 ft | 295 kts | 211° |
| 2026-05-06 17:19 | 59.31497 | 17.49181 | 12265 ft | 295 kts | 212° |
| 2026-05-06 17:19 | 59.29658 | 17.47393 | 12752 ft | 295 kts | 212° |
| 2026-05-06 17:19 | 59.27817 | 17.45604 | 13239 ft | 295 kts | 212° |
| 2026-05-06 17:19 | 59.25999 | 17.43840 | 13739 ft | 296 kts | 213° |
| 2026-05-06 17:20 | 59.24151 | 17.42047 | 14173 ft | 297 kts | 213° |
| 2026-05-06 17:20 | 59.22301 | 17.40256 | 14621 ft | 297 kts | 213° |
| 2026-05-06 17:20 | 59.20450 | 17.38464 | 15059 ft | 297 kts | 213° |
| 2026-05-06 17:20 | 59.18596 | 17.36673 | 15512 ft | 297 kts | 213° |
| 2026-05-06 17:21 | 59.16741 | 17.34883 | 15979 ft | 297 kts | 214° |
| 2026-05-06 17:21 | 59.14860 | 17.33068 | 16457 ft | 298 kts | 214° |
| 2026-05-06 17:21 | 59.13031 | 17.31306 | 16915 ft | 298 kts | 214° |
| 2026-05-06 17:21 | 59.11170 | 17.29517 | 17394 ft | 298 kts | 214° |
| 2026-05-06 17:22 | 59.09306 | 17.27727 | 17894 ft | 299 kts | 214° |
| 2026-05-06 17:22 | 59.07449 | 17.25915 | 18361 ft | 297 kts | 217° |
| 2026-05-06 17:22 | 59.05783 | 17.23625 | 18775 ft | 291 kts | 225° |
| 2026-05-06 17:22 | 59.04227 | 17.21087 | 19220 ft | 293 kts | 226° |
| 2026-05-06 17:23 | 59.02666 | 17.18503 | 19676 ft | 296 kts | 226° |
| 2026-05-06 17:23 | 59.01091 | 17.15903 | 20123 ft | 299 kts | 226° |
| 2026-05-06 17:23 | 58.99494 | 17.13286 | 20567 ft | 302 kts | 226° |
| 2026-05-06 17:23 | 58.97878 | 17.10657 | 21045 ft | 305 kts | 226° |
| 2026-05-06 17:24 | 58.96245 | 17.08013 | 21526 ft | 307 kts | 226° |
| 2026-05-06 17:24 | 58.94599 | 17.05360 | 21995 ft | 309 kts | 226° |
| 2026-05-06 17:24 | 58.92937 | 17.02691 | 22482 ft | 311 kts | 225° |
| 2026-05-06 17:24 | 58.91268 | 17.00015 | 22978 ft | 313 kts | 225° |
| 2026-05-06 17:25 | 58.89585 | 16.97323 | 23474 ft | 314 kts | 225° |
| 2026-05-06 17:25 | 58.87897 | 16.94629 | 23900 ft | 316 kts | 225° |
| 2026-05-06 17:25 | 58.86197 | 16.91918 | 24335 ft | 317 kts | 225° |
| 2026-05-06 17:25 | 58.84488 | 16.89196 | 24772 ft | 319 kts | 225° |
| 2026-05-06 17:26 | 58.82769 | 16.86464 | 25198 ft | 321 kts | 225° |
| 2026-05-06 17:26 | 58.81041 | 16.83720 | 25646 ft | 323 kts | 225° |
| 2026-05-06 17:26 | 58.79318 | 16.80988 | 26094 ft | 325 kts | 225° |
| 2026-05-06 17:26 | 58.77573 | 16.78223 | 26539 ft | 327 kts | 224° |
| 2026-05-06 17:27 | 58.75811 | 16.75436 | 27016 ft | 329 kts | 224° |
| 2026-05-06 17:27 | 58.74038 | 16.72636 | 27492 ft | 331 kts | 224° |
| 2026-05-06 17:27 | 58.72253 | 16.69821 | 27969 ft | 333 kts | 224° |
| 2026-05-06 17:27 | 58.70454 | 16.66988 | 28449 ft | 334 kts | 224° |
| 2026-05-06 17:28 | 58.68653 | 16.64156 | 28949 ft | 335 kts | 224° |
| 2026-05-06 17:28 | 58.66848 | 16.61320 | 29441 ft | 335 kts | 224° |
| 2026-05-06 17:28 | 58.65047 | 16.58493 | 29938 ft | 334 kts | 224° |
| 2026-05-06 17:28 | 58.63243 | 16.55669 | 30381 ft | 333 kts | 224° |
| 2026-05-06 17:29 | 58.61453 | 16.52870 | 30821 ft | 332 kts | 224° |
| 2026-05-06 17:29 | 58.59665 | 16.50079 | 31259 ft | 330 kts | 224° |
| 2026-05-06 17:29 | 58.57890 | 16.47314 | 31692 ft | 328 kts | 223° |
| 2026-05-06 17:29 | 58.56123 | 16.44562 | 32031 ft | 330 kts | 223° |
| 2026-05-06 17:30 | 58.54312 | 16.41738 | 31988 ft | 340 kts | 223° |
| 2026-05-06 17:30 | 58.52405 | 16.38963 | 31980 ft | 352 kts | 218° |
| 2026-05-06 17:30 | 58.50273 | 16.36510 | 32006 ft | 364 kts | 213° |
| 2026-05-06 17:31 | 58.45582 | 16.32168 | 32007 ft | 384 kts | 211° |
| 2026-05-06 17:31 | 58.40652 | 16.27660 | 32003 ft | 402 kts | 211° |
| 2026-05-06 17:32 | 58.35506 | 16.22959 | 31997 ft | 418 kts | 210° |
| 2026-05-06 17:32 | 58.30165 | 16.18087 | 31979 ft | 432 kts | 210° |
| 2026-05-06 17:33 | 58.24665 | 16.13083 | 31976 ft | 444 kts | 210° |
| 2026-05-06 17:33 | 58.19041 | 16.07983 | 31969 ft | 449 kts | 210° |
| 2026-05-06 17:34 | 58.13403 | 16.02894 | 31971 ft | 448 kts | 210° |
| 2026-05-06 17:34 | 58.07775 | 15.97825 | 31968 ft | 448 kts | 210° |
| 2026-05-06 17:35 | 58.02141 | 15.92766 | 31971 ft | 448 kts | 210° |
| 2026-05-06 17:35 | 57.96507 | 15.87723 | 31966 ft | 449 kts | 209° |
| 2026-05-06 17:36 | 57.88031 | 15.80170 | 31968 ft | 449 kts | 209° |
| 2026-05-06 17:36 | 57.82372 | 15.75148 | 31983 ft | 450 kts | 209° |
| 2026-05-06 17:37 | 57.76703 | 15.70135 | 31976 ft | 451 kts | 209° |
| 2026-05-06 17:37 | 57.71045 | 15.65150 | 31972 ft | 452 kts | 209° |
| 2026-05-06 17:38 | 57.65341 | 15.60143 | 31971 ft | 453 kts | 209° |
| 2026-05-06 17:38 | 57.59624 | 15.55141 | 31963 ft | 454 kts | 208° |
| 2026-05-06 17:39 | 57.53905 | 15.50155 | 31967 ft | 454 kts | 208° |
| 2026-05-06 17:39 | 57.48173 | 15.45174 | 31963 ft | 455 kts | 208° |
| 2026-05-06 17:40 | 57.42444 | 15.40215 | 31962 ft | 455 kts | 208° |
| 2026-05-06 17:40 | 57.36704 | 15.35261 | 31957 ft | 455 kts | 208° |
| 2026-05-06 17:41 | 57.30957 | 15.30320 | 31962 ft | 455 kts | 208° |
| 2026-05-06 17:41 | 57.25202 | 15.25389 | 31958 ft | 456 kts | 208° |
| 2026-05-06 17:42 | 57.19445 | 15.20473 | 31963 ft | 456 kts | 208° |
| 2026-05-06 17:42 | 57.13676 | 15.15564 | 31955 ft | 457 kts | 208° |
| 2026-05-06 17:43 | 57.07907 | 15.10672 | 31948 ft | 457 kts | 207° |
| 2026-05-06 17:43 | 57.02161 | 15.05816 | 31947 ft | 457 kts | 207° |
| 2026-05-06 17:44 | 56.96374 | 15.00942 | 31944 ft | 458 kts | 207° |
| 2026-05-06 17:44 | 56.90578 | 14.96077 | 31942 ft | 459 kts | 207° |
| 2026-05-06 17:45 | 56.84769 | 14.91217 | 31941 ft | 459 kts | 207° |
| 2026-05-06 17:45 | 56.78956 | 14.86371 | 31944 ft | 460 kts | 207° |
| 2026-05-06 17:46 | 56.73130 | 14.81532 | 31947 ft | 460 kts | 207° |
| 2026-05-06 17:46 | 56.67300 | 14.76705 | 31952 ft | 461 kts | 207° |
| 2026-05-06 17:47 | 56.61455 | 14.71882 | 31958 ft | 461 kts | 207° |
| 2026-05-06 17:47 | 56.55603 | 14.67070 | 31958 ft | 462 kts | 206° |
| 2026-05-06 17:48 | 56.49742 | 14.62266 | 31956 ft | 463 kts | 206° |
| 2026-05-06 17:48 | 56.43788 | 14.57759 | 31961 ft | 465 kts | 204° |
| 2026-05-06 17:49 | 56.37750 | 14.53556 | 31956 ft | 466 kts | 203° |
| 2026-05-06 17:49 | 56.31683 | 14.49347 | 31963 ft | 467 kts | 203° |
| 2026-05-06 17:50 | 56.25619 | 14.45130 | 31960 ft | 468 kts | 203° |
| 2026-05-06 17:50 | 56.19543 | 14.40905 | 31966 ft | 469 kts | 203° |
| 2026-05-06 17:51 | 56.13450 | 14.36680 | 31960 ft | 469 kts | 203° |
| 2026-05-06 17:51 | 56.07355 | 14.32468 | 31966 ft | 470 kts | 202° |
| 2026-05-06 17:52 | 56.01251 | 14.28265 | 31969 ft | 470 kts | 202° |
| 2026-05-06 17:52 | 55.95182 | 14.24101 | 31965 ft | 470 kts | 202° |
| 2026-05-06 17:53 | 55.89073 | 14.19923 | 31963 ft | 470 kts | 202° |
| 2026-05-06 17:53 | 55.82962 | 14.15758 | 31964 ft | 470 kts | 202° |
| 2026-05-06 17:54 | 55.76845 | 14.11602 | 31966 ft | 470 kts | 202° |
| 2026-05-06 17:54 | 55.70728 | 14.07462 | 31964 ft | 471 kts | 202° |
| 2026-05-06 17:55 | 55.64609 | 14.03333 | 31967 ft | 471 kts | 202° |
| 2026-05-06 17:55 | 55.58487 | 13.99216 | 31967 ft | 471 kts | 202° |
| 2026-05-06 17:56 | 55.52356 | 13.95107 | 31959 ft | 471 kts | 202° |
| 2026-05-06 17:56 | 55.46226 | 13.91012 | 31963 ft | 472 kts | 201° |
| 2026-05-06 17:57 | 55.41123 | 13.87614 | 31959 ft | 472 kts | 201° |
| 2026-05-06 17:57 | 55.34975 | 13.83532 | 31961 ft | 472 kts | 201° |
| 2026-05-06 17:58 | 55.28826 | 13.79463 | 31956 ft | 473 kts | 201° |
| 2026-05-06 17:58 | 55.22692 | 13.75288 | 31957 ft | 473 kts | 202° |
| 2026-05-06 17:59 | 55.16587 | 13.70975 | 31954 ft | 473 kts | 202° |
| 2026-05-06 17:59 | 55.10473 | 13.66669 | 31949 ft | 474 kts | 202° |
| 2026-05-06 18:00 | 55.04350 | 13.62395 | 31952 ft | 474 kts | 202° |
| 2026-05-06 18:00 | 54.98208 | 13.58137 | 31945 ft | 475 kts | 202° |
| 2026-05-06 18:01 | 54.92068 | 13.53898 | 31944 ft | 475 kts | 202° |
| 2026-05-06 18:01 | 54.85924 | 13.49668 | 31942 ft | 475 kts | 202° |
| 2026-05-06 18:02 | 54.79772 | 13.45446 | 31939 ft | 475 kts | 202° |
| 2026-05-06 18:02 | 54.73623 | 13.41239 | 31936 ft | 475 kts | 202° |
| 2026-05-06 18:03 | 54.67471 | 13.37044 | 31934 ft | 475 kts | 202° |
| 2026-05-06 18:03 | 54.61332 | 13.32872 | 31933 ft | 475 kts | 202° |
| 2026-05-06 18:04 | 54.55184 | 13.28708 | 31928 ft | 474 kts | 202° |
| 2026-05-06 18:04 | 54.49041 | 13.24559 | 31926 ft | 473 kts | 202° |
| 2026-05-06 18:05 | 54.42954 | 13.20462 | 31927 ft | 473 kts | 202° |
| 2026-05-06 18:05 | 54.36760 | 13.16307 | 31924 ft | 472 kts | 202° |
| 2026-05-06 18:06 | 54.30669 | 13.12234 | 31919 ft | 472 kts | 202° |
| 2026-05-06 18:06 | 54.24590 | 13.08181 | 31912 ft | 472 kts | 201° |
| 2026-05-06 18:07 | 54.18478 | 13.04120 | 31911 ft | 471 kts | 201° |
| 2026-05-06 18:07 | 54.12364 | 13.00070 | 31910 ft | 471 kts | 201° |
| 2026-05-06 18:08 | 54.06256 | 12.96038 | 31902 ft | 471 kts | 201° |
| 2026-05-06 18:08 | 54.00137 | 12.92010 | 31897 ft | 471 kts | 201° |
| 2026-05-06 18:09 | 53.94031 | 12.88004 | 31889 ft | 471 kts | 202° |
| 2026-05-06 18:09 | 53.87924 | 12.84009 | 31884 ft | 470 kts | 202° |
| 2026-05-06 18:10 | 53.81815 | 12.80027 | 31887 ft | 470 kts | 202° |
| 2026-05-06 18:10 | 53.75715 | 12.76062 | 31896 ft | 470 kts | 202° |
| 2026-05-06 18:11 | 53.69591 | 12.72095 | 31885 ft | 469 kts | 202° |
| 2026-05-06 18:11 | 53.63516 | 12.68171 | 31872 ft | 469 kts | 202° |
| 2026-05-06 18:12 | 53.60478 | 12.66213 | 31728 ft | 467 kts | 202° |
| 2026-05-06 18:12 | 53.57457 | 12.64270 | 31361 ft | 461 kts | 202° |
| 2026-05-06 18:12 | 53.54480 | 12.62359 | 31095 ft | 455 kts | 202° |
| 2026-05-06 18:12 | 53.51540 | 12.60473 | 30841 ft | 450 kts | 202° |
| 2026-05-06 18:13 | 53.48625 | 12.58607 | 30584 ft | 447 kts | 202° |
| 2026-05-06 18:13 | 53.45727 | 12.56753 | 30324 ft | 444 kts | 202° |
| 2026-05-06 18:13 | 53.42845 | 12.54912 | 30091 ft | 442 kts | 202° |
| 2026-05-06 18:13 | 53.39981 | 12.53085 | 29835 ft | 439 kts | 202° |
| 2026-05-06 18:14 | 53.37133 | 12.51271 | 29541 ft | 437 kts | 202° |
| 2026-05-06 18:14 | 53.34295 | 12.49466 | 29256 ft | 435 kts | 202° |
| 2026-05-06 18:14 | 53.31472 | 12.47673 | 28971 ft | 433 kts | 202° |
| 2026-05-06 18:14 | 53.28665 | 12.45893 | 28691 ft | 431 kts | 202° |
| 2026-05-06 18:15 | 53.25868 | 12.44121 | 28407 ft | 429 kts | 202° |
| 2026-05-06 18:15 | 53.23119 | 12.42383 | 28132 ft | 427 kts | 202° |
| 2026-05-06 18:15 | 53.20347 | 12.40632 | 27866 ft | 425 kts | 202° |
| 2026-05-06 18:15 | 53.17586 | 12.38892 | 27588 ft | 423 kts | 202° |
| 2026-05-06 18:16 | 53.14836 | 12.37160 | 27320 ft | 422 kts | 202° |
| 2026-05-06 18:16 | 53.12100 | 12.35439 | 27053 ft | 420 kts | 202° |
| 2026-05-06 18:16 | 53.09368 | 12.33723 | 26786 ft | 419 kts | 202° |
| 2026-05-06 18:16 | 53.06647 | 12.32017 | 26529 ft | 417 kts | 202° |
| 2026-05-06 18:17 | 53.03933 | 12.30317 | 26276 ft | 416 kts | 202° |
| 2026-05-06 18:17 | 53.01229 | 12.28626 | 26016 ft | 415 kts | 202° |
| 2026-05-06 18:17 | 52.98535 | 12.26943 | 25919 ft | 412 kts | 202° |
| 2026-05-06 18:17 | 52.95845 | 12.25265 | 25875 ft | 414 kts | 202° |
| 2026-05-06 18:18 | 52.93148 | 12.23583 | 25849 ft | 415 kts | 202° |
| 2026-05-06 18:18 | 52.90444 | 12.21901 | 25844 ft | 414 kts | 202° |
| 2026-05-06 18:18 | 52.87746 | 12.20224 | 25840 ft | 415 kts | 202° |
| 2026-05-06 18:18 | 52.85045 | 12.18548 | 25839 ft | 415 kts | 202° |
| 2026-05-06 18:19 | 52.82341 | 12.16873 | 25835 ft | 415 kts | 202° |
| 2026-05-06 18:19 | 52.79640 | 12.15201 | 25836 ft | 415 kts | 202° |
| 2026-05-06 18:19 | 52.76939 | 12.13532 | 25834 ft | 415 kts | 202° |
| 2026-05-06 18:19 | 52.74237 | 12.11864 | 25761 ft | 415 kts | 202° |
| 2026-05-06 18:20 | 52.71543 | 12.10204 | 25293 ft | 412 kts | 202° |
| 2026-05-06 18:20 | 52.68882 | 12.08568 | 24903 ft | 404 kts | 202° |
| 2026-05-06 18:20 | 52.66266 | 12.06961 | 24515 ft | 398 kts | 202° |
| 2026-05-06 18:20 | 52.63686 | 12.05378 | 24117 ft | 392 kts | 202° |
| 2026-05-06 18:21 | 52.61145 | 12.03820 | 23721 ft | 387 kts | 202° |
| 2026-05-06 18:21 | 52.58638 | 12.02285 | 23339 ft | 383 kts | 202° |
| 2026-05-06 18:21 | 52.56153 | 12.00765 | 22882 ft | 378 kts | 202° |
| 2026-05-06 18:21 | 52.53704 | 11.99267 | 22487 ft | 373 kts | 202° |
| 2026-05-06 18:22 | 52.51288 | 11.97793 | 22124 ft | 368 kts | 202° |
| 2026-05-06 18:22 | 52.48902 | 11.96339 | 21765 ft | 364 kts | 202° |
| 2026-05-06 18:22 | 52.46541 | 11.94900 | 21424 ft | 361 kts | 202° |
| 2026-05-06 18:22 | 52.44194 | 11.93472 | 21076 ft | 358 kts | 202° |
| 2026-05-06 18:23 | 52.41867 | 11.92058 | 20738 ft | 356 kts | 202° |
| 2026-05-06 18:23 | 52.39546 | 11.90649 | 20387 ft | 354 kts | 202° |
| 2026-05-06 18:23 | 52.37239 | 11.89251 | 20074 ft | 353 kts | 202° |
| 2026-05-06 18:23 | 52.34945 | 11.87861 | 19752 ft | 352 kts | 202° |
| 2026-05-06 18:24 | 52.32652 | 11.86474 | 19432 ft | 351 kts | 202° |
| 2026-05-06 18:24 | 52.30361 | 11.85089 | 19125 ft | 351 kts | 202° |
| 2026-05-06 18:24 | 52.28068 | 11.83705 | 18802 ft | 351 kts | 202° |
| 2026-05-06 18:24 | 52.25775 | 11.82323 | 18489 ft | 351 kts | 202° |
| 2026-05-06 18:25 | 52.23484 | 11.80943 | 18187 ft | 351 kts | 202° |
| 2026-05-06 18:25 | 52.21190 | 11.79563 | 17843 ft | 351 kts | 202° |
| 2026-05-06 18:25 | 52.18899 | 11.78187 | 17494 ft | 351 kts | 202° |
| 2026-05-06 18:25 | 52.16609 | 11.76812 | 17151 ft | 351 kts | 202° |
| 2026-05-06 18:26 | 52.14320 | 11.75440 | 16807 ft | 350 kts | 201° |
| 2026-05-06 18:26 | 52.12033 | 11.74071 | 16469 ft | 349 kts | 201° |
| 2026-05-06 18:26 | 52.09755 | 11.72708 | 16118 ft | 348 kts | 201° |
| 2026-05-06 18:26 | 52.07484 | 11.71351 | 15800 ft | 347 kts | 201° |
| 2026-05-06 18:27 | 52.05225 | 11.70003 | 15477 ft | 346 kts | 201° |
| 2026-05-06 18:27 | 52.02972 | 11.68659 | 15148 ft | 344 kts | 201° |
| 2026-05-06 18:27 | 52.00729 | 11.67323 | 14835 ft | 343 kts | 201° |
| 2026-05-06 18:27 | 51.98496 | 11.65994 | 14512 ft | 341 kts | 201° |
| 2026-05-06 18:28 | 51.96273 | 11.64673 | 14192 ft | 339 kts | 201° |
| 2026-05-06 18:28 | 51.94058 | 11.63357 | 13877 ft | 338 kts | 201° |
| 2026-05-06 18:28 | 51.91859 | 11.62052 | 13570 ft | 336 kts | 201° |
| 2026-05-06 18:28 | 51.89667 | 11.60753 | 13219 ft | 335 kts | 201° |
| 2026-05-06 18:29 | 51.87484 | 11.59462 | 12900 ft | 332 kts | 201° |
| 2026-05-06 18:29 | 51.85371 | 11.58074 | 12819 ft | 325 kts | 207° |
| 2026-05-06 18:29 | 51.83415 | 11.56254 | 12635 ft | 324 kts | 213° |
| 2026-05-06 18:29 | 51.81590 | 11.54125 | 12371 ft | 323 kts | 220° |
| 2026-05-06 18:30 | 51.79895 | 11.51769 | 12100 ft | 321 kts | 222° |
| 2026-05-06 18:30 | 51.78255 | 11.49396 | 11770 ft | 320 kts | 222° |
| 2026-05-06 18:30 | 51.76598 | 11.47001 | 11454 ft | 320 kts | 222° |
| 2026-05-06 18:30 | 51.74937 | 11.44619 | 11124 ft | 319 kts | 222° |
| 2026-05-06 18:31 | 51.73272 | 11.42249 | 10791 ft | 319 kts | 221° |
| 2026-05-06 18:31 | 51.71609 | 11.39896 | 10487 ft | 318 kts | 221° |
| 2026-05-06 18:31 | 51.69952 | 11.37561 | 10181 ft | 317 kts | 221° |
| 2026-05-06 18:31 | 51.68291 | 11.35225 | 9862 ft | 315 kts | 221° |
| 2026-05-06 18:32 | 51.66646 | 11.32919 | 9521 ft | 311 kts | 220° |
| 2026-05-06 18:32 | 51.64839 | 11.31170 | 9126 ft | 298 kts | 198° |
| 2026-05-06 18:32 | 51.62839 | 11.30796 | 8750 ft | 285 kts | 176° |
| 2026-05-06 18:32 | 51.60966 | 11.31576 | 8382 ft | 274 kts | 159° |
| 2026-05-06 18:33 | 51.59299 | 11.33013 | 7985 ft | 271 kts | 147° |
| 2026-05-06 18:33 | 51.57994 | 11.35202 | 7584 ft | 274 kts | 127° |
| 2026-05-06 18:33 | 51.56915 | 11.37729 | 7229 ft | 275 kts | 127° |
| 2026-05-06 18:33 | 51.55820 | 11.40242 | 6871 ft | 276 kts | 127° |
| 2026-05-06 18:34 | 51.54705 | 11.42763 | 6510 ft | 276 kts | 127° |
| 2026-05-06 18:34 | 51.53590 | 11.45265 | 6148 ft | 276 kts | 127° |
| 2026-05-06 18:34 | 51.52537 | 11.47837 | 5749 ft | 277 kts | 115° |
| 2026-05-06 18:34 | 51.52196 | 11.50853 | 5340 ft | 278 kts | 83° |
| 2026-05-06 18:35 | 51.52793 | 11.53757 | 4976 ft | 275 kts | 58° |
| 2026-05-06 18:35 | 51.53883 | 11.56263 | 4619 ft | 274 kts | 54° |
| 2026-05-06 18:35 | 51.54734 | 11.58995 | 4226 ft | 275 kts | 79° |
| 2026-05-06 18:35 | 51.54715 | 11.62005 | 3854 ft | 267 kts | 106° |
| 2026-05-06 18:36 | 51.54079 | 11.64722 | 3473 ft | 253 kts | 114° |
| 2026-05-06 18:36 | 51.53390 | 11.67246 | 3101 ft | 240 kts | 114° |
| 2026-05-06 18:36 | 51.52723 | 11.69611 | 3006 ft | 226 kts | 114° |
| 2026-05-06 18:36 | 51.52043 | 11.72001 | 3055 ft | 245 kts | 114° |
| 2026-05-06 18:37 | 51.51322 | 11.74532 | 3070 ft | 250 kts | 115° |
| 2026-05-06 18:37 | 51.50754 | 11.76157 | 3003 ft | 252 kts | 122° |
| 2026-05-06 18:37 | 51.49492 | 11.79174 | 2986 ft | 237 kts | 124° |
| 2026-05-06 18:37 | 51.48574 | 11.81310 | 2984 ft | 229 kts | 124° |
| 2026-05-06 18:38 | 51.47668 | 11.83400 | 2989 ft | 231 kts | 124° |
| 2026-05-06 18:38 | 51.46742 | 11.85541 | 3007 ft | 235 kts | 124° |
| 2026-05-06 18:38 | 51.45806 | 11.87707 | 3008 ft | 237 kts | 124° |
| 2026-05-06 18:38 | 51.44865 | 11.89881 | 3009 ft | 236 kts | 124° |
| 2026-05-06 18:39 | 51.43941 | 11.92017 | 2989 ft | 230 kts | 124° |
| 2026-05-06 18:39 | 51.43036 | 11.94106 | 2987 ft | 225 kts | 124° |
| 2026-05-06 18:39 | 51.42146 | 11.96160 | 2989 ft | 224 kts | 124° |
| 2026-05-06 18:40 | 51.40533 | 12.00273 | 2942 ft | 215 kts | 105° |
| 2026-05-06 18:40 | 51.40406 | 12.01855 | 2768 ft | 215 kts | 91° |
| 2026-05-06 18:40 | 51.40411 | 12.04197 | 2450 ft | 205 kts | 88° |
| 2026-05-06 18:40 | 51.40494 | 12.06371 | 2165 ft | 186 kts | 85° |
| 2026-05-06 18:41 | 51.40588 | 12.08327 | 1956 ft | 169 kts | 85° |
| 2026-05-06 18:41 | 51.40676 | 12.10185 | 1749 ft | 164 kts | 85° |
| 2026-05-06 18:41 | 51.40760 | 12.11969 | 1529 ft | 156 kts | 85° |
| 2026-05-06 18:41 | 51.40840 | 12.13660 | 1225 ft | 148 kts | 84° |
| 2026-05-06 18:42 | 51.40920 | 12.15281 | 1027 ft | 146 kts | 83° |
| 2026-05-06 18:42 | 51.40994 | 12.16902 | 833 ft | 143 kts | 84° |
| 2026-05-06 18:42 | 51.41069 | 12.18469 | 696 ft | 142 kts | 84° |
| 2026-05-06 18:42 | 51.41137 | 12.20022 | 529 ft | 137 kts | 83° |
| 2026-05-06 18:43 | 51.41210 | 12.21449 | 458 ft | 116 kts | 85° |
| 2026-05-06 18:43 | 51.41258 | 12.22519 | 466 ft | 71 kts | 85° |
| 2026-05-06 18:43 | 51.41227 | 12.23225 | 471 ft | 61 kts | 95° |
| 2026-05-06 18:43 | 51.41312 | 12.23773 | 477 ft | 46 kts | 85° |
| 2026-05-06 18:44 | 51.41228 | 12.24220 | 472 ft | 38 kts | 115° |
| 2026-05-06 18:44 | 51.41196 | 12.24325 | 476 ft | 5 kts | 116° |
| 2026-05-06 18:44 | 51.41184 | 12.24374 | 473 ft | 5 kts | 111° |
| 2026-05-06 18:44 | 51.41177 | 12.24442 | 473 ft | 8 kts | 90° |
| 2026-05-06 18:45 | 51.41172 | 12.24542 | 471 ft | 11 kts | 120° |
| 2026-05-06 18:45 | 51.41100 | 12.24614 | 469 ft | 15 kts | 143° |
| 2026-05-06 18:45 | 51.40962 | 12.24659 | 467 ft | 27 kts | 177° |
| 2026-05-06 18:45 | 51.40855 | 12.24668 | 469 ft | 2 kts | 186° |
| 2026-05-06 18:46 | 51.40846 | 12.24615 | 469 ft | 8 kts | 267° |
| 2026-05-06 18:46 | 51.40843 | 12.24534 | 469 ft | 6 kts | 266° |
| 2026-05-06 18:46 | 51.40842 | 12.24524 | 469 ft | 0 kts | 266° |